Aérodrome :
LOGIN :

S'inscrire | Disclaimer

   EN    FR    IT 

 










Légende :    VFR   VFR Marginal   IFR   IFR Intensif   IFR Très Intensif
Visi : 
Plafond : 
>= 8 km
>= 3000ft
5 à 8 km
1000 à 3000 ft
1500m à 5 km
500 à 1000 ft
800 à 1500m
200 à 500 ft
< 800m
< 200 ft
Symboles :   Orages  Brouillard  Fortes neiges  Fortes précipitations  Vent > 20 kt
SIGMETs :   Divers  Orages  Givrage  Turbulence  Onde Orograph.  Cendres Volcan.







- Altitude de l'aérodrome : 22 ft
- Code IATA : LDY
- Voir les cartes d'approche


EGAE - Londonderry Eglington

DERNIER METAR :
  • 171650Z 20006KT 160V250 9999 -SHRA FEW017 SCT045 19/14 Q1001

METARs EXPIRÉS :
  • 171620Z 23005KT 170V270 9999 FEW019 SCT045 20/14 Q1002
  • 171550Z 23008KT 9999 -SHRA FEW019 BKN045 18/14 Q1002
  • 171520Z 21010KT 170V230 9999 -SHRA SCT021 BKN034 18/14 Q1003
  • 171450Z 20010KT 150V220 9999 FEW020 BKN032 19/14 Q1003
  • 171420Z 20011KT 170V230 9999 FEW023 SCT028 20/14 Q1002

TAF TAF EGAE
Valide du 17 à 15h jusqu'au 17 à 20h UTC


171357Z 1715/1720 21013KT 9999 FEW014 SCT028
PROB40
TEMPO 1715/1720 7000 SHRA
Pas de NOTAMs connus pour ce terrain.



MET'MAP, la Météo Aéronautique d'un coup d'oeil ! - Copyright ORBIFLY Décembre 2007 - Disclaimer

ORBIFLY MET'MAP TEAM :

Programmation & Développement : Alexandra Zaïnal
Conception & Développement : Baudouin d'Aumeries
Co-Programmation & Développement : Marc-Olivier Méhu
Soutien technique & logistique : Manuel Goepfert

Contact : metmap@orbifly.com




SOURCES & CREDITS :

   NOAA